createdAt,value
2018-05-11T00:01:30.403Z,10.80
2018-05-11T00:03:57.848Z,10.90
2018-05-11T00:06:26.079Z,10.90
2018-05-11T00:08:53.542Z,10.90
2018-05-11T00:11:20.988Z,11.00
2018-05-11T00:13:48.436Z,10.90
2018-05-11T00:16:15.898Z,10.90
2018-05-11T00:18:43.337Z,10.90
2018-05-11T00:21:11.569Z,10.70
2018-05-11T00:23:39.018Z,10.70
2018-05-11T00:26:06.526Z,10.80
2018-05-11T00:28:34.748Z,10.60
2018-05-11T00:31:02.184Z,10.60
2018-05-11T00:33:30.404Z,10.50
2018-05-11T00:35:57.851Z,10.50
2018-05-11T00:38:25.311Z,10.60
2018-05-11T00:40:52.752Z,10.60
2018-05-11T00:43:20.204Z,10.60
2018-05-11T00:45:48.431Z,10.70
2018-05-11T00:48:15.893Z,10.70
2018-05-11T00:50:43.335Z,10.70
2018-05-11T00:53:10.804Z,10.70
2018-05-11T00:55:51.220Z,10.50
2018-05-11T00:58:18.682Z,10.20
2018-05-11T01:00:46.135Z,10.00
2018-05-11T01:03:13.593Z,10.10
2018-05-11T01:05:41.066Z,10.40
2018-05-11T01:08:08.530Z,10.40
2018-05-11T01:10:35.981Z,10.40
2018-05-11T01:13:03.504Z,10.40
2018-05-11T01:15:31.028Z,10.40
2018-05-11T01:17:58.472Z,10.50
2018-05-11T01:20:25.920Z,10.50
2018-05-11T01:22:53.398Z,10.30
2018-05-11T01:25:20.841Z,10.30
2018-05-11T01:27:48.299Z,10.30
2018-05-11T01:30:15.749Z,10.40
2018-05-11T01:32:43.208Z,10.40
2018-05-11T01:35:10.659Z,10.40
2018-05-11T01:37:38.133Z,10.40
2018-05-11T01:40:05.585Z,10.20
2018-05-11T01:42:33.051Z,10.20
2018-05-11T01:45:00.516Z,10.20
2018-05-11T01:47:27.969Z,10.10
2018-05-11T01:49:55.448Z,10.00
2018-05-11T01:52:22.914Z,9.90
2018-05-11T01:54:50.359Z,9.90
2018-05-11T01:57:17.821Z,9.90
2018-05-11T01:59:45.267Z,9.90
2018-05-11T02:02:12.731Z,9.90
2018-05-11T02:04:40.211Z,9.90
2018-05-11T02:07:07.670Z,9.90
2018-05-11T02:09:35.133Z,9.90
2018-05-11T02:12:02.576Z,10.00
2018-05-11T02:14:30.805Z,10.10
2018-05-11T02:16:58.271Z,10.10
2018-05-11T02:19:25.755Z,10.10
2018-05-11T02:21:53.213Z,10.10
2018-05-11T02:24:20.659Z,10.10
2018-05-11T02:26:48.111Z,10.10
2018-05-11T02:29:15.580Z,9.90
2018-05-11T02:31:43.038Z,9.70
2018-05-11T02:34:10.499Z,9.50
2018-05-11T02:36:37.959Z,9.40
2018-05-11T02:39:05.409Z,9.60
2018-05-11T02:41:32.860Z,9.70
2018-05-11T02:44:00.325Z,9.50
2018-05-11T02:46:27.768Z,9.30
2018-05-11T02:48:55.228Z,9.20
2018-05-11T02:51:22.681Z,9.30
2018-05-11T02:53:50.895Z,9.10
2018-05-11T02:56:18.360Z,9.10
2018-05-11T02:58:45.796Z,9.10
2018-05-11T03:01:14.016Z,8.90
2018-05-11T03:03:42.231Z,8.90
2018-05-11T03:06:09.709Z,8.90
2018-05-11T03:08:37.911Z,9.00
2018-05-11T03:11:05.391Z,8.90
2018-05-11T03:13:32.836Z,8.90
2018-05-11T03:16:00.317Z,8.80
2018-05-11T03:18:27.829Z,8.80
2018-05-11T03:20:55.223Z,8.80
2018-05-11T03:23:22.665Z,8.70
2018-05-11T03:25:50.875Z,8.60
2018-05-11T03:28:18.332Z,8.60
2018-05-11T03:30:45.829Z,8.60
2018-05-11T03:33:13.252Z,8.60
2018-05-11T03:35:40.704Z,8.50
2018-05-11T03:38:08.176Z,8.40
2018-05-11T03:40:35.638Z,8.40
2018-05-11T03:43:03.092Z,8.40
2018-05-11T03:45:30.570Z,8.40
2018-05-11T03:47:57.983Z,8.40
2018-05-11T03:50:25.492Z,8.30
2018-05-11T03:52:52.921Z,8.50
2018-05-11T03:55:21.156Z,8.50
2018-05-11T03:57:48.600Z,8.50
2018-05-11T04:00:16.054Z,8.50
2018-05-11T04:02:55.466Z,8.50
2018-05-11T04:05:35.633Z,8.40
2018-05-11T04:08:15.742Z,8.30
2018-05-11T04:10:43.193Z,8.30
2018-05-11T04:13:10.644Z,8.40
2018-05-11T04:15:38.103Z,8.30
2018-05-11T04:18:06.313Z,8.40
2018-05-11T04:20:33.772Z,8.40
2018-05-11T04:23:01.339Z,8.60
2018-05-11T04:25:28.788Z,8.50
2018-05-11T04:27:57.008Z,8.60
2018-05-11T04:30:25.208Z,8.60
2018-05-11T04:32:52.666Z,8.60
2018-05-11T04:35:20.122Z,8.60
2018-05-11T04:37:47.580Z,8.50
2018-05-11T04:40:15.036Z,8.60
2018-05-11T04:42:43.237Z,8.40
2018-05-11T04:45:10.805Z,8.40
2018-05-11T04:47:38.314Z,8.30
2018-05-11T04:50:05.756Z,8.70
2018-05-11T04:52:33.223Z,8.70
2018-05-11T04:55:01.429Z,8.80
2018-05-11T04:57:28.882Z,8.80
2018-05-11T04:59:56.332Z,8.80
2018-05-11T05:02:23.780Z,9.00
2018-05-11T05:04:51.220Z,8.90
2018-05-11T05:07:18.665Z,8.90
2018-05-11T05:09:46.101Z,9.10
2018-05-11T05:12:13.578Z,9.00
2018-05-11T05:14:41.809Z,9.10
2018-05-11T05:17:09.257Z,9.10
2018-05-11T05:19:36.689Z,9.20
2018-05-11T05:22:04.142Z,9.30
2018-05-11T05:24:32.359Z,9.40
2018-05-11T05:27:00.205Z,9.40
2018-05-11T05:29:27.720Z,9.50
2018-05-11T05:31:55.133Z,9.40
2018-05-11T05:34:22.600Z,9.50
2018-05-11T05:36:50.076Z,9.60
2018-05-11T05:39:17.594Z,9.70
2018-05-11T05:41:44.990Z,9.80
2018-05-11T05:44:12.464Z,9.80
2018-05-11T05:46:39.911Z,9.90
2018-05-11T05:49:07.368Z,9.90
2018-05-11T05:51:34.819Z,9.90
2018-05-11T05:54:03.065Z,9.90
2018-05-11T05:56:30.502Z,9.90
2018-05-11T05:58:57.979Z,10.00
2018-05-11T06:01:25.428Z,10.20
2018-05-11T06:03:52.906Z,10.40
2018-05-11T06:06:20.347Z,10.60
2018-05-11T06:08:47.816Z,10.40
2018-05-11T06:11:15.275Z,10.00
2018-05-11T06:13:42.752Z,10.10
2018-05-11T06:16:10.222Z,10.30
2018-05-11T06:18:37.631Z,10.30
2018-05-11T06:21:05.844Z,10.30
2018-05-11T06:23:33.325Z,10.30
2018-05-11T06:26:00.767Z,10.60
2018-05-11T06:28:28.224Z,10.70
2018-05-11T06:30:55.665Z,10.70
2018-05-11T06:33:23.140Z,10.70
2018-05-11T06:35:50.579Z,10.80
2018-05-11T06:38:18.807Z,10.90
2018-05-11T06:40:46.249Z,10.90
2018-05-11T06:43:13.697Z,11.00
2018-05-11T06:45:41.177Z,11.10
2018-05-11T06:48:08.635Z,11.20
2018-05-11T06:50:36.087Z,11.20
2018-05-11T06:53:03.529Z,11.20
2018-05-11T06:55:31.753Z,11.30
2018-05-11T06:57:59.224Z,11.30
2018-05-11T07:00:26.689Z,11.50
2018-05-11T07:02:54.919Z,11.40
2018-05-11T07:05:23.155Z,11.50
2018-05-11T07:07:50.654Z,11.40
2018-05-11T07:10:18.073Z,11.50
2018-05-11T07:12:45.535Z,11.50
2018-05-11T07:15:12.997Z,11.80
2018-05-11T07:17:40.459Z,11.90
2018-05-11T07:20:08.700Z,11.90
2018-05-11T07:22:36.140Z,11.80
2018-05-11T07:25:04.367Z,12.00
2018-05-11T07:27:31.817Z,12.00
2018-05-11T07:29:59.288Z,12.10
2018-05-11T07:32:26.728Z,12.10
2018-05-11T07:34:54.229Z,12.20
2018-05-11T07:37:22.383Z,12.30
2018-05-11T07:39:49.873Z,12.30
2018-05-11T07:42:17.307Z,12.30
2018-05-11T07:44:44.757Z,12.30
2018-05-11T07:47:12.193Z,12.40
2018-05-11T07:49:39.632Z,12.50
2018-05-11T07:52:07.087Z,12.60
2018-05-11T07:54:34.542Z,12.60
2018-05-11T07:57:01.968Z,12.70
2018-05-11T07:59:29.426Z,12.80
2018-05-11T08:01:56.888Z,13.00
2018-05-11T08:04:25.110Z,13.10
2018-05-11T08:06:52.573Z,13.00
2018-05-11T08:09:20.011Z,13.20
2018-05-11T08:11:47.465Z,13.10
2018-05-11T08:14:15.000Z,13.10
2018-05-11T08:16:42.342Z,13.00
2018-05-11T08:19:09.859Z,13.10
2018-05-11T08:21:37.293Z,13.40
2018-05-11T08:24:05.507Z,13.40
2018-05-11T08:26:32.965Z,13.40
2018-05-11T08:29:00.424Z,13.40
2018-05-11T08:31:27.882Z,13.50
2018-05-11T08:33:55.317Z,13.60
2018-05-11T08:36:23.526Z,14.00
2018-05-11T08:38:50.964Z,14.00
2018-05-11T08:41:19.186Z,14.00
2018-05-11T08:43:46.633Z,13.90
2018-05-11T08:46:14.091Z,14.20
2018-05-11T08:48:41.543Z,14.10
2018-05-11T08:51:08.996Z,14.10
2018-05-11T08:53:37.227Z,14.40
2018-05-11T08:56:04.667Z,14.30
2018-05-11T08:58:32.124Z,14.30
2018-05-11T09:00:59.574Z,14.40
2018-05-11T09:03:27.045Z,14.50
2018-05-11T09:05:54.489Z,14.70
2018-05-11T09:08:22.718Z,15.00
2018-05-11T09:10:50.179Z,15.00
2018-05-11T09:13:17.633Z,15.00
2018-05-11T09:15:45.062Z,15.10
2018-05-11T09:18:12.553Z,15.10
2018-05-11T09:20:40.016Z,15.30
2018-05-11T09:23:07.479Z,15.40
2018-05-11T09:25:34.915Z,15.60
2018-05-11T09:28:02.355Z,15.60
2018-05-11T09:30:30.566Z,15.90
2018-05-11T09:32:58.028Z,15.90
2018-05-11T09:35:25.495Z,15.70
2018-05-11T09:37:52.950Z,15.60
2018-05-11T09:40:20.378Z,15.80
2018-05-11T09:42:48.609Z,16.10
2018-05-11T09:45:16.072Z,16.00
2018-05-11T09:47:43.544Z,16.20
2018-05-11T09:50:10.980Z,16.30
2018-05-11T09:52:38.444Z,16.20
2018-05-11T09:55:05.978Z,16.50
2018-05-11T09:57:34.109Z,16.40
2018-05-11T10:00:01.560Z,16.40
2018-05-11T10:02:29.017Z,16.40
2018-05-11T10:04:56.464Z,16.70
2018-05-11T10:07:23.936Z,16.70
2018-05-11T10:09:51.392Z,16.90
2018-05-11T10:12:18.845Z,17.00
2018-05-11T10:14:47.056Z,17.00
2018-05-11T10:17:14.512Z,17.00
2018-05-11T10:19:41.978Z,17.10
2018-05-11T10:22:09.415Z,17.10
2018-05-11T10:24:36.889Z,17.30
2018-05-11T10:27:04.326Z,17.50
2018-05-11T10:29:32.708Z,17.40
2018-05-11T10:32:00.909Z,17.60
2018-05-11T10:34:28.422Z,17.60
2018-05-11T10:36:55.834Z,17.80
2018-05-11T10:39:24.222Z,17.80
2018-05-11T10:41:51.684Z,17.60
2018-05-11T10:44:19.192Z,17.80
2018-05-11T10:46:46.635Z,17.60
2018-05-11T10:49:14.084Z,17.80
2018-05-11T10:51:41.541Z,18.00
2018-05-11T10:54:09.061Z,18.10
2018-05-11T10:56:37.648Z,18.00
2018-05-11T10:59:05.108Z,18.00
2018-05-11T11:01:32.597Z,18.10
2018-05-11T11:04:00.083Z,18.60
2018-05-11T11:06:27.560Z,19.00
2018-05-11T11:08:55.095Z,18.60
2018-05-11T11:11:23.297Z,18.50
2018-05-11T11:13:50.776Z,18.50
2018-05-11T11:16:18.266Z,18.80
2018-05-11T11:18:45.728Z,19.00
2018-05-11T11:21:13.184Z,19.20
2018-05-11T11:23:40.631Z,19.30
2018-05-11T11:26:08.108Z,19.50
2018-05-11T11:28:35.548Z,19.50
2018-05-11T11:31:02.993Z,19.60
2018-05-11T11:33:30.453Z,19.50
2018-05-11T11:35:57.891Z,19.40
2018-05-11T11:38:25.371Z,19.40
2018-05-11T11:40:52.820Z,19.40
2018-05-11T11:43:20.297Z,19.10
2018-05-11T11:45:47.758Z,19.60
2018-05-11T11:48:15.221Z,19.60
2018-05-11T11:50:42.684Z,19.50
2018-05-11T11:53:10.127Z,19.80
2018-05-11T11:55:41.234Z,19.80
2018-05-11T11:58:09.424Z,19.70
2018-05-11T12:00:36.874Z,19.70
2018-05-11T12:03:05.333Z,19.80
2018-05-11T12:05:32.803Z,20.10
2018-05-11T12:08:00.265Z,20.00
2018-05-11T12:10:27.722Z,19.80
2018-05-11T12:12:55.164Z,19.80
2018-05-11T12:15:22.638Z,20.10
2018-05-11T12:17:50.073Z,20.10
2018-05-11T12:20:17.551Z,19.60
2018-05-11T12:22:45.000Z,19.80
2018-05-11T12:25:12.455Z,20.10
2018-05-11T12:27:40.688Z,20.20
2018-05-11T12:30:08.152Z,20.20
2018-05-11T12:32:35.719Z,20.40
2018-05-11T12:35:03.155Z,20.60
2018-05-11T12:37:30.623Z,20.50
2018-05-11T12:39:58.075Z,20.30
2018-05-11T12:42:25.620Z,20.30
2018-05-11T12:44:53.838Z,21.10
2018-05-11T12:47:21.308Z,21.10
2018-05-11T12:49:49.484Z,20.40
2018-05-11T12:52:16.947Z,20.60
2018-05-11T12:54:44.416Z,20.70
2018-05-11T12:57:11.870Z,21.00
2018-05-11T12:59:39.336Z,21.20
2018-05-11T13:02:06.796Z,21.40
2018-05-11T13:04:34.263Z,21.50
2018-05-11T13:07:01.719Z,21.80
2018-05-11T13:09:29.161Z,21.50
2018-05-11T13:11:56.615Z,21.70
2018-05-11T13:14:24.056Z,21.10
2018-05-11T13:16:52.291Z,21.70
2018-05-11T13:19:19.751Z,21.60
2018-05-11T13:21:47.211Z,21.40
2018-05-11T13:24:14.678Z,22.00
2018-05-11T13:26:42.897Z,22.20
2018-05-11T13:29:10.367Z,22.20
2018-05-11T13:31:38.591Z,21.30
2018-05-11T13:34:06.076Z,21.30
2018-05-11T13:36:33.520Z,21.10
2018-05-11T13:39:00.986Z,21.40
2018-05-11T13:41:28.437Z,21.40
2018-05-11T13:43:55.884Z,21.40
2018-05-11T13:46:23.328Z,21.40
2018-05-11T13:48:50.787Z,21.20
2018-05-11T13:51:18.237Z,21.50
2018-05-11T13:53:46.485Z,22.30
2018-05-11T13:56:13.959Z,22.30
2018-05-11T13:58:41.379Z,21.90
2018-05-11T14:01:08.838Z,21.40
2018-05-11T14:03:36.375Z,21.70
2018-05-11T14:06:03.752Z,21.60
2018-05-11T14:08:31.213Z,21.30
2018-05-11T14:10:58.670Z,21.90
2018-05-11T14:13:26.124Z,22.20
2018-05-11T14:15:54.431Z,22.20
2018-05-11T14:18:21.882Z,22.20
2018-05-11T14:20:49.336Z,22.20
2018-05-11T14:23:16.798Z,22.50
2018-05-11T14:25:45.010Z,22.10
2018-05-11T14:28:12.466Z,22.10
2018-05-11T14:30:39.905Z,21.90
2018-05-11T14:33:07.378Z,22.10
2018-05-11T14:35:34.815Z,22.60
2018-05-11T14:38:03.053Z,22.10
2018-05-11T14:40:30.496Z,22.10
2018-05-11T14:42:57.948Z,21.90
2018-05-11T14:45:25.411Z,21.50
2018-05-11T14:47:52.872Z,21.90
2018-05-11T14:50:20.338Z,22.10
2018-05-11T14:52:47.788Z,21.80
2018-05-11T14:55:15.241Z,22.40
2018-05-11T14:57:43.465Z,22.60
2018-05-11T15:00:10.927Z,22.50
2018-05-11T15:02:38.390Z,22.70
2018-05-11T15:05:05.849Z,22.90
2018-05-11T15:07:33.306Z,23.00
2018-05-11T15:10:00.763Z,22.90
2018-05-11T15:12:28.223Z,22.60
2018-05-11T15:14:55.681Z,23.00
2018-05-11T15:17:23.126Z,22.00
2018-05-11T15:19:51.344Z,22.50
2018-05-11T15:22:18.796Z,22.50
2018-05-11T15:24:46.268Z,22.10
2018-05-11T15:27:13.700Z,22.30
2018-05-11T15:29:41.160Z,22.80
2018-05-11T15:32:08.619Z,22.30
2018-05-11T15:34:36.073Z,22.40
2018-05-11T15:37:04.285Z,22.00
2018-05-11T15:39:31.749Z,22.00
2018-05-11T15:41:59.212Z,22.20
2018-05-11T15:44:26.661Z,22.30
2018-05-11T15:46:54.107Z,22.40
2018-05-11T15:49:21.568Z,22.90
2018-05-11T15:51:49.775Z,22.80
2018-05-11T15:54:17.234Z,22.80
2018-05-11T15:56:44.751Z,22.90
2018-05-11T15:59:12.955Z,22.70
2018-05-11T16:01:40.410Z,22.60
2018-05-11T16:04:08.617Z,23.10
2018-05-11T16:06:36.083Z,23.10
2018-05-11T16:09:03.553Z,23.20
2018-05-11T16:11:31.008Z,22.80
2018-05-11T16:13:58.445Z,22.70
2018-05-11T16:16:25.889Z,22.60
2018-05-11T16:18:54.094Z,22.70
2018-05-11T16:21:21.548Z,22.80
2018-05-11T16:23:49.775Z,22.50
2018-05-11T16:26:17.243Z,22.50
2018-05-11T16:28:44.672Z,22.60
2018-05-11T16:31:12.127Z,22.70
2018-05-11T16:33:39.555Z,22.90
2018-05-11T16:36:07.783Z,22.80
2018-05-11T16:38:35.249Z,22.80
2018-05-11T16:41:02.696Z,22.50
2018-05-11T16:43:30.143Z,22.50
2018-05-11T16:45:57.606Z,22.80
2018-05-11T16:48:25.068Z,22.70
2018-05-11T16:50:52.523Z,22.90
2018-05-11T16:53:20.748Z,22.60
2018-05-11T16:55:48.173Z,22.60
2018-05-11T16:58:15.621Z,22.60
2018-05-11T17:00:43.811Z,22.20
2018-05-11T17:03:11.267Z,22.20
2018-05-11T17:05:39.498Z,22.20
2018-05-11T17:08:06.965Z,22.30
2018-05-11T17:10:34.375Z,22.30
2018-05-11T17:13:01.833Z,22.30
2018-05-11T17:15:30.060Z,22.00
2018-05-11T17:17:57.525Z,22.00
2018-05-11T17:20:24.961Z,22.10
2018-05-11T17:22:52.529Z,22.30
2018-05-11T17:25:19.864Z,22.00
2018-05-11T17:27:48.090Z,21.90
2018-05-11T17:30:15.558Z,21.90
2018-05-11T17:32:43.764Z,21.80
2018-05-11T17:35:11.981Z,21.40
2018-05-11T17:37:39.428Z,21.30
2018-05-11T17:40:06.897Z,21.50
2018-05-11T17:42:35.117Z,21.40
2018-05-11T17:45:02.582Z,21.40
2018-05-11T17:47:30.041Z,21.40
2018-05-11T17:49:57.484Z,21.40
2018-05-11T17:52:24.940Z,21.40
2018-05-11T17:54:52.375Z,21.20
2018-05-11T17:57:20.581Z,20.90
2018-05-11T17:59:48.023Z,20.90
2018-05-11T18:02:15.489Z,20.60
2018-05-11T18:04:42.944Z,20.50
2018-05-11T18:07:11.154Z,20.30
2018-05-11T18:09:38.619Z,20.30
2018-05-11T18:12:06.129Z,20.30
2018-05-11T18:14:33.508Z,20.40
2018-05-11T18:17:01.723Z,20.00
2018-05-11T18:19:29.173Z,19.90
2018-05-11T18:21:56.609Z,19.80
2018-05-11T18:24:24.840Z,19.70
2018-05-11T18:26:52.288Z,19.70
2018-05-11T18:29:19.745Z,19.70
2018-05-11T18:31:47.196Z,19.70
2018-05-11T18:34:14.637Z,19.70
2018-05-11T18:36:42.843Z,19.60
2018-05-11T18:39:10.307Z,19.50
2018-05-11T18:41:37.768Z,19.50
2018-05-11T18:44:05.219Z,19.40
2018-05-11T18:46:32.693Z,19.30
2018-05-11T18:49:00.150Z,19.30
2018-05-11T18:51:27.600Z,19.20
2018-05-11T18:53:56.184Z,19.00
2018-05-11T18:56:23.268Z,19.00
2018-05-11T18:58:50.732Z,19.00
2018-05-11T19:01:18.187Z,18.90
2018-05-11T19:03:45.641Z,18.80
2018-05-11T19:06:13.078Z,18.70
2018-05-11T19:08:41.312Z,18.60
2018-05-11T19:11:08.762Z,18.60
2018-05-11T19:13:36.187Z,18.60
2018-05-11T19:16:04.414Z,18.40
2018-05-11T19:18:31.864Z,18.40
2018-05-11T19:20:59.319Z,18.30
2018-05-11T19:23:26.770Z,18.30
2018-05-11T19:25:54.236Z,18.30
2018-05-11T19:28:21.675Z,18.20
2018-05-11T19:30:49.956Z,18.10
2018-05-11T19:33:18.161Z,18.00
2018-05-11T19:35:45.636Z,18.00
2018-05-11T19:38:13.092Z,18.00
2018-05-11T19:40:40.585Z,17.90
2018-05-11T19:43:08.796Z,17.70
2018-05-11T19:45:37.023Z,17.60
2018-05-11T19:48:04.477Z,17.60
2018-05-11T19:50:31.933Z,17.60
2018-05-11T19:52:59.408Z,17.50
2018-05-11T19:55:26.860Z,17.50
2018-05-11T19:57:54.301Z,17.40
2018-05-11T20:00:22.520Z,17.30
2018-05-11T20:02:49.963Z,17.30
2018-05-11T20:05:17.426Z,17.30
2018-05-11T20:07:44.882Z,17.30
2018-05-11T20:10:12.354Z,17.40
2018-05-11T20:12:39.804Z,17.30
2018-05-11T20:15:07.261Z,17.20
2018-05-11T20:17:34.722Z,17.00
2018-05-11T20:20:02.182Z,16.90
2018-05-11T20:22:29.708Z,16.90
2018-05-11T20:24:57.255Z,16.90
2018-05-11T20:27:24.608Z,17.00
2018-05-11T20:29:52.089Z,17.00
2018-05-11T20:32:19.544Z,16.80
2018-05-11T20:34:46.991Z,16.60
2018-05-11T20:37:14.474Z,16.50
2018-05-11T20:39:41.916Z,16.50
2018-05-11T20:42:09.404Z,16.50
2018-05-11T20:44:36.869Z,16.40
2018-05-11T20:47:04.336Z,16.30
2018-05-11T20:49:31.795Z,16.30
2018-05-11T20:51:59.249Z,16.30
2018-05-11T20:54:26.698Z,16.20
2018-05-11T20:56:54.162Z,16.30
2018-05-11T20:59:22.062Z,16.40
2018-05-11T21:01:49.588Z,16.30
2018-05-11T21:04:19.696Z,16.20
2018-05-11T21:06:48.028Z,16.00
2018-05-11T21:09:15.477Z,16.00
2018-05-11T21:11:42.957Z,16.00
2018-05-11T21:14:10.409Z,16.10
2018-05-11T21:16:37.860Z,16.20
2018-05-11T21:19:05.332Z,16.10
2018-05-11T21:21:32.781Z,15.80
2018-05-11T21:24:00.239Z,16.00
2018-05-11T21:26:27.886Z,16.00
2018-05-11T21:28:55.342Z,15.90
2018-05-11T21:31:22.802Z,15.60
2018-05-11T21:33:50.258Z,15.50
2018-05-11T21:36:17.737Z,15.60
2018-05-11T21:38:45.210Z,15.60
2018-05-11T21:41:12.768Z,15.80
2018-05-11T21:43:40.120Z,15.80
2018-05-11T21:46:07.595Z,15.70
2018-05-11T21:48:35.044Z,15.70
2018-05-11T21:51:02.514Z,15.60
2018-05-11T21:53:29.969Z,15.70
2018-05-11T21:55:57.421Z,15.70
2018-05-11T21:58:24.883Z,15.70
2018-05-11T22:00:52.336Z,15.70
2018-05-11T22:03:20.570Z,15.40
2018-05-11T22:05:48.023Z,15.30
2018-05-11T22:08:15.476Z,15.30
2018-05-11T22:10:42.925Z,15.30
2018-05-11T22:13:10.395Z,15.20
2018-05-11T22:15:37.854Z,15.20
2018-05-11T22:18:05.311Z,15.30
2018-05-11T22:20:32.741Z,15.30
2018-05-11T22:23:00.960Z,14.90
2018-05-11T22:25:28.433Z,14.90
2018-05-11T22:27:55.902Z,14.90
2018-05-11T22:30:23.351Z,15.00
2018-05-11T22:32:50.806Z,15.20
2018-05-11T22:35:18.244Z,15.10
2018-05-11T22:37:45.698Z,15.00
2018-05-11T22:40:13.928Z,15.10
2018-05-11T22:42:41.377Z,15.00
2018-05-11T22:45:08.825Z,14.90
2018-05-11T22:47:36.294Z,14.80
2018-05-11T22:50:03.732Z,14.80
2018-05-11T22:52:31.977Z,14.50
2018-05-11T22:55:00.196Z,14.70
2018-05-11T22:57:27.654Z,14.70
2018-05-11T22:59:55.887Z,14.50
2018-05-11T23:02:24.106Z,14.60
2018-05-11T23:04:52.349Z,14.50
2018-05-11T23:24:39.069Z,14.50
2018-05-11T23:27:06.512Z,14.50
2018-05-11T23:29:34.732Z,14.20
2018-05-11T23:32:02.184Z,14.10
2018-05-11T23:34:29.638Z,14.10
2018-05-11T23:36:57.083Z,14.00
2018-05-11T23:39:25.301Z,13.90
2018-05-11T23:41:52.753Z,13.90
2018-05-11T23:44:20.235Z,13.90
2018-05-11T23:46:47.665Z,14.10
2018-05-11T23:49:15.146Z,14.20
2018-05-11T23:51:42.600Z,14.40
2018-05-11T23:54:10.049Z,14.40
2018-05-11T23:56:37.508Z,14.30
2018-05-11T23:59:04.964Z,14.40
